createdAt,value
2019-05-17T00:00:23.117Z,33.37
2019-05-17T00:01:28.457Z,31.37
2019-05-17T00:02:34.130Z,31.73
2019-05-17T00:03:39.427Z,30.63
2019-05-17T00:04:46.987Z,31.23
2019-05-17T00:05:52.287Z,30.10
2019-05-17T00:06:58.043Z,30.53
2019-05-17T00:08:03.165Z,29.37
2019-05-17T00:09:08.980Z,31.27
2019-05-17T00:10:17.017Z,30.73
2019-05-17T00:11:22.020Z,30.07
2019-05-17T00:12:29.953Z,31.73
2019-05-17T00:13:38.457Z,30.33
2019-05-17T00:14:42.592Z,35.57
2019-05-17T00:15:48.426Z,31.93
2019-05-17T00:16:53.599Z,28.80
2019-05-17T00:17:59.344Z,31.47
2019-05-17T00:19:07.445Z,32.73
2019-05-17T00:20:12.934Z,31.33
2019-05-17T00:21:18.095Z,32.83
2019-05-17T00:22:23.775Z,35.43
2019-05-17T00:23:28.975Z,32.07
2019-05-17T00:24:36.928Z,33.83
2019-05-17T00:25:41.791Z,31.60
2019-05-17T00:26:48.068Z,32.63
2019-05-17T00:27:56.330Z,27.87
2019-05-17T00:29:01.888Z,32.70
2019-05-17T00:30:09.665Z,31.40
2019-05-17T00:31:17.185Z,31.70
2019-05-17T00:32:22.232Z,29.37
2019-05-17T00:33:28.127Z,34.77
2019-05-17T00:34:33.342Z,32.83
2019-05-17T00:35:39.038Z,34.87
2019-05-17T00:36:46.766Z,32.17
2019-05-17T00:37:51.671Z,31.13
2019-05-17T00:38:56.955Z,34.60
2019-05-17T00:40:02.762Z,32.50
2019-05-17T00:41:08.107Z,38.20
2019-05-17T00:42:13.964Z,33.90
2019-05-17T00:43:19.225Z,33.57
2019-05-17T00:44:27.083Z,34.60
2019-05-17T00:45:31.918Z,32.93
2019-05-17T00:46:37.759Z,35.53
2019-05-17T00:47:43.075Z,34.60
2019-05-17T00:48:48.915Z,38.00
2019-05-17T00:49:54.173Z,33.27
2019-05-17T00:51:01.864Z,33.17
2019-05-17T00:52:07.328Z,34.87
2019-05-17T00:53:16.263Z,41.70
2019-05-17T00:54:22.197Z,36.83
2019-05-17T00:55:27.994Z,32.93
2019-05-17T00:56:33.351Z,34.97
2019-05-17T00:57:39.167Z,33.90
2019-05-17T00:58:44.361Z,30.13
2019-05-17T00:59:50.228Z,34.13
2019-05-17T01:00:57.091Z,36.57
2019-05-17T01:02:03.018Z,36.40
2019-05-17T01:03:08.248Z,37.50
2019-05-17T01:04:13.993Z,34.50
2019-05-17T01:05:19.181Z,34.10
2019-05-17T01:06:24.885Z,33.53
2019-05-17T01:07:30.098Z,34.60
2019-05-17T01:08:37.337Z,35.00
2019-05-17T01:09:43.804Z,38.03
2019-05-17T01:10:49.706Z,35.93
2019-05-17T01:11:56.638Z,33.17
2019-05-17T01:13:02.463Z,34.57
2019-05-17T01:14:07.680Z,34.77
2019-05-17T01:15:14.044Z,30.87
2019-05-17T01:16:19.206Z,35.10
2019-05-17T01:17:26.954Z,35.20
2019-05-17T01:18:31.714Z,36.40
2019-05-17T01:19:37.606Z,34.33
2019-05-17T01:20:42.783Z,35.47
2019-05-17T01:21:48.541Z,33.47
2019-05-17T01:22:53.711Z,34.20
2019-05-17T01:23:59.453Z,34.20
2019-05-17T01:25:06.361Z,34.20
2019-05-17T01:26:12.344Z,36.70
2019-05-17T01:27:17.524Z,36.67
2019-05-17T01:28:23.337Z,33.90
2019-05-17T01:29:28.591Z,35.93
2019-05-17T01:30:34.567Z,35.53
2019-05-17T01:31:39.816Z,36.47
2019-05-17T01:32:46.423Z,33.73
2019-05-17T01:33:51.933Z,35.53
2019-05-17T01:34:57.795Z,31.97
2019-05-17T01:36:03.077Z,32.80
2019-05-17T01:37:08.795Z,35.33
2019-05-17T01:38:14.059Z,33.60
2019-05-17T01:39:21.539Z,33.37
2019-05-17T01:40:26.965Z,32.20
2019-05-17T01:41:32.734Z,33.27
2019-05-17T01:42:37.894Z,34.30
2019-05-17T01:43:43.515Z,33.07
2019-05-17T01:44:48.707Z,36.13
2019-05-17T01:45:54.378Z,32.33
2019-05-17T01:46:59.659Z,35.30
2019-05-17T01:48:07.416Z,34.57
2019-05-17T01:49:12.260Z,34.50
2019-05-17T01:50:18.144Z,34.23
2019-05-17T01:51:23.363Z,35.83
2019-05-17T01:52:29.084Z,35.93
2019-05-17T01:53:36.319Z,34.97
2019-05-17T01:54:41.806Z,36.40
2019-05-17T01:55:46.912Z,34.63
2019-05-17T01:56:53.852Z,33.17
2019-05-17T01:57:58.942Z,35.53
2019-05-17T01:59:06.783Z,34.33
2019-05-17T02:00:13.322Z,35.07
2019-05-17T02:01:19.056Z,37.23
2019-05-17T02:02:29.589Z,35.30
2019-05-17T02:03:37.529Z,35.40
2019-05-17T02:04:42.439Z,32.80
2019-05-17T02:05:48.237Z,35.90
2019-05-17T02:06:54.110Z,34.33
2019-05-17T02:07:59.853Z,34.17
2019-05-17T02:09:06.411Z,32.37
2019-05-17T02:10:13.777Z,36.17
2019-05-17T02:11:18.893Z,37.43
2019-05-17T02:12:26.608Z,33.93
2019-05-17T02:13:31.516Z,33.93
2019-05-17T02:14:37.574Z,35.53
2019-05-17T02:15:42.864Z,34.73
2019-05-17T02:16:48.657Z,39.60
2019-05-17T02:17:53.901Z,36.60
2019-05-17T02:18:59.695Z,34.37
2019-05-17T02:20:06.433Z,38.37
2019-05-17T02:21:12.270Z,35.23
2019-05-17T02:22:17.507Z,36.87
2019-05-17T02:23:23.227Z,35.30
2019-05-17T02:24:28.370Z,39.70
2019-05-17T02:25:36.670Z,36.90
2019-05-17T02:26:41.088Z,35.93
2019-05-17T02:27:46.780Z,37.33
2019-05-17T02:28:52.091Z,38.97
2019-05-17T02:29:57.761Z,36.23
2019-05-17T02:31:03.851Z,38.77
2019-05-17T02:32:12.611Z,36.10
2019-05-17T02:33:16.459Z,33.03
2019-05-17T02:34:23.260Z,38.47
2019-05-17T02:35:28.597Z,37.47
2019-05-17T02:36:34.487Z,34.73
2019-05-17T02:37:42.934Z,34.60
2019-05-17T02:38:47.130Z,36.07
2019-05-17T02:40:02.082Z,35.67
2019-05-17T02:41:02.909Z,36.63
2019-05-17T02:42:06.622Z,36.80
2019-05-17T02:43:13.272Z,36.33
2019-05-17T02:44:18.686Z,33.40
2019-05-17T02:45:24.478Z,36.20
2019-05-17T02:46:29.676Z,36.97
2019-05-17T02:47:35.429Z,36.70
2019-05-17T02:48:42.754Z,35.17
2019-05-17T02:49:48.043Z,33.70
2019-05-17T02:50:53.486Z,34.07
2019-05-17T02:51:59.274Z,38.60
2019-05-17T02:53:04.998Z,38.00
2019-05-17T02:54:13.275Z,34.13
2019-05-17T02:55:23.077Z,36.93
2019-05-17T02:56:25.157Z,35.33
2019-05-17T02:57:30.400Z,34.50
2019-05-17T02:58:36.193Z,36.17
2019-05-17T02:59:43.284Z,35.93
2019-05-17T03:00:48.853Z,35.17
2019-05-17T03:01:54.134Z,30.73
2019-05-17T03:03:03.032Z,31.20
2019-05-17T03:04:06.732Z,33.60
2019-05-17T03:05:13.179Z,31.80
2019-05-17T03:06:18.382Z,32.27
2019-05-17T03:07:26.340Z,33.77
2019-05-17T03:08:34.091Z,32.63
2019-05-17T03:09:39.117Z,33.67
2019-05-17T03:10:44.399Z,32.50
2019-05-17T03:11:52.905Z,35.43
2019-05-17T03:12:57.035Z,31.63
2019-05-17T03:14:04.030Z,33.70
2019-05-17T03:15:12.634Z,32.00
2019-05-17T03:16:17.481Z,31.47
2019-05-17T03:17:23.100Z,34.13
2019-05-17T03:18:29.050Z,30.27
2019-05-17T03:19:34.285Z,28.37
2019-05-17T03:20:42.923Z,32.43
2019-05-17T03:21:47.019Z,30.60
2019-05-17T03:22:52.899Z,30.23
2019-05-17T03:23:58.087Z,30.10
2019-05-17T03:25:03.945Z,30.63
2019-05-17T03:26:12.772Z,29.30
2019-05-17T03:27:16.584Z,30.20
2019-05-17T03:28:23.640Z,29.93
2019-05-17T03:29:29.074Z,31.70
2019-05-17T03:30:37.196Z,31.67
2019-05-17T03:31:50.491Z,32.30
2019-05-17T03:32:55.464Z,30.47
2019-05-17T03:33:57.897Z,30.17
2019-05-17T03:35:07.007Z,31.67
2019-05-17T03:36:16.046Z,32.40
2019-05-17T03:37:17.644Z,33.80
2019-05-17T03:38:23.504Z,31.43
2019-05-17T03:39:28.760Z,31.97
2019-05-17T03:41:03.567Z,31.97
2019-05-17T03:41:42.937Z,34.10
2019-05-17T03:42:48.778Z,31.53
2019-05-17T03:43:54.015Z,31.63
2019-05-17T03:45:02.928Z,30.63
2019-05-17T03:46:07.350Z,32.93
2019-05-17T03:47:15.887Z,33.27
2019-05-17T03:48:22.319Z,31.80
2019-05-17T03:49:28.708Z,33.53
2019-05-17T03:50:34.055Z,32.70
2019-05-17T03:51:42.668Z,36.17
2019-05-17T03:52:46.757Z,35.93
2019-05-17T03:53:53.229Z,32.90
2019-05-17T03:54:58.507Z,33.40
2019-05-17T03:56:04.602Z,33.43
2019-05-17T03:57:13.236Z,34.03
2019-05-17T03:58:17.366Z,35.33
2019-05-17T03:59:24.291Z,35.07
2019-05-17T04:00:35.215Z,33.40
2019-05-17T04:01:39.329Z,33.17
2019-05-17T04:02:45.281Z,34.50
2019-05-17T04:03:52.898Z,33.17
2019-05-17T04:04:58.013Z,32.97
2019-05-17T04:06:04.044Z,33.40
2019-05-17T04:07:12.753Z,36.33
2019-05-17T04:08:22.677Z,36.40
2019-05-17T04:09:27.243Z,35.53
2019-05-17T04:10:33.527Z,31.23
2019-05-17T04:11:42.971Z,34.50
2019-05-17T04:12:47.479Z,33.83
2019-05-17T04:13:53.987Z,31.37
2019-05-17T04:15:02.896Z,32.87
2019-05-17T04:16:09.139Z,33.83
2019-05-17T04:17:13.793Z,32.33
2019-05-17T04:18:19.595Z,31.57
2019-05-17T04:19:24.783Z,32.57
2019-05-17T04:20:33.142Z,35.93
2019-05-17T04:21:37.440Z,34.03
2019-05-17T04:22:44.346Z,29.50
2019-05-17T04:23:53.581Z,30.53
2019-05-17T04:24:57.502Z,30.63
2019-05-17T04:26:04.318Z,33.10
2019-05-17T04:27:13.407Z,33.03
2019-05-17T04:28:17.063Z,36.67
2019-05-17T04:29:22.927Z,33.77
2019-05-17T04:30:28.021Z,31.60
2019-05-17T04:31:34.809Z,33.87
2019-05-17T04:32:43.602Z,32.53
2019-05-17T04:33:47.939Z,32.33
2019-05-17T04:34:54.325Z,30.07
2019-05-17T04:36:02.482Z,29.77
2019-05-17T04:37:07.094Z,30.63
2019-05-17T04:38:13.014Z,29.67
2019-05-17T04:39:18.291Z,30.33
2019-05-17T04:40:24.161Z,32.67
2019-05-17T04:41:41.479Z,30.43
2019-05-17T04:42:36.787Z,29.33
2019-05-17T04:43:42.561Z,30.73
2019-05-17T04:44:48.476Z,30.60
2019-05-17T04:45:53.947Z,30.37
2019-05-17T04:47:02.755Z,29.67
2019-05-17T04:48:06.668Z,28.70
2019-05-17T04:49:13.847Z,28.17
2019-05-17T04:50:19.344Z,30.13
2019-05-17T04:51:25.137Z,28.53
2019-05-17T04:52:33.338Z,28.63
2019-05-17T04:53:37.670Z,27.90
2019-05-17T04:54:44.191Z,28.60
2019-05-17T04:55:49.914Z,26.50
2019-05-17T04:56:55.158Z,28.53
2019-05-17T04:58:03.846Z,26.30
2019-05-17T04:59:07.788Z,27.23
2019-05-17T05:00:14.287Z,25.63
2019-05-17T05:01:19.557Z,27.27
2019-05-17T05:02:25.255Z,27.37
2019-05-17T05:03:32.588Z,25.27
2019-05-17T05:04:38.619Z,27.93
2019-05-17T05:05:44.127Z,24.77
2019-05-17T05:06:52.458Z,22.87
2019-05-17T05:07:57.353Z,24.50
2019-05-17T05:09:03.009Z,22.23
2019-05-17T05:10:08.649Z,22.67
2019-05-17T05:11:14.698Z,23.93
2019-05-17T05:12:22.653Z,21.97
2019-05-17T05:13:27.504Z,24.80
2019-05-17T05:14:32.996Z,21.33
2019-05-17T05:15:44.348Z,21.50
2019-05-17T05:16:52.758Z,24.90
2019-05-17T05:17:57.305Z,22.77
2019-05-17T05:19:03.131Z,22.27
2019-05-17T05:20:12.965Z,22.60
2019-05-17T05:21:17.296Z,21.53
2019-05-17T05:22:23.261Z,22.13
2019-05-17T05:23:28.461Z,22.47
2019-05-17T05:24:34.191Z,22.03
2019-05-17T05:25:39.387Z,20.37
2019-05-17T05:26:45.333Z,22.40
2019-05-17T05:27:51.673Z,21.07
2019-05-17T05:28:57.507Z,22.97
2019-05-17T05:30:03.762Z,21.30
2019-05-17T05:31:09.636Z,24.13
2019-05-17T05:32:14.881Z,23.60
2019-05-17T05:33:22.187Z,22.70
2019-05-17T05:34:27.675Z,23.10
2019-05-17T05:35:33.497Z,22.90
2019-05-17T05:36:38.779Z,22.33
2019-05-17T05:37:44.594Z,22.43
2019-05-17T05:38:51.536Z,23.83
2019-05-17T05:39:57.555Z,24.57
2019-05-17T05:41:02.868Z,23.47
2019-05-17T05:42:11.613Z,23.77
2019-05-17T05:43:15.681Z,24.47
2019-05-17T05:44:21.598Z,25.70
2019-05-17T05:45:26.733Z,24.13
2019-05-17T05:46:32.596Z,24.83
2019-05-17T05:47:37.838Z,24.33
2019-05-17T05:48:43.609Z,23.03
2019-05-17T05:49:48.951Z,24.20
2019-05-17T05:50:54.659Z,24.33
2019-05-17T05:52:01.782Z,21.37
2019-05-17T05:53:07.425Z,23.43
2019-05-17T05:54:12.671Z,23.40
2019-05-17T05:55:18.781Z,22.53
2019-05-17T05:56:23.909Z,25.53
2019-05-17T05:57:32.051Z,23.63
2019-05-17T05:58:36.663Z,23.90
2019-05-17T05:59:42.568Z,25.00
2019-05-17T06:00:47.995Z,21.23
2019-05-17T06:01:53.742Z,24.77
2019-05-17T06:02:58.916Z,23.03
2019-05-17T06:04:04.712Z,23.77
2019-05-17T06:05:12.832Z,22.30
2019-05-17T06:06:17.621Z,21.03
2019-05-17T06:07:22.831Z,21.23
2019-05-17T06:08:28.663Z,22.73
2019-05-17T06:09:34.136Z,23.10
2019-05-17T06:10:42.704Z,17.30
2019-05-17T06:11:48.184Z,19.43
2019-05-17T06:12:53.974Z,18.63
2019-05-17T06:14:01.439Z,25.87
2019-05-17T06:15:07.348Z,20.33
2019-05-17T06:16:12.632Z,19.07
2019-05-17T06:17:21.615Z,17.63
2019-05-17T06:18:26.480Z,14.30
2019-05-17T06:19:32.360Z,15.27
2019-05-17T06:20:37.701Z,15.80
2019-05-17T06:21:44.611Z,14.53
2019-05-17T06:22:51.807Z,13.70
2019-05-17T06:23:57.453Z,16.40
2019-05-17T06:25:03.736Z,17.47
2019-05-17T06:26:12.242Z,12.13
2019-05-17T06:27:16.849Z,16.00
2019-05-17T06:28:22.657Z,16.70
2019-05-17T06:29:27.959Z,34.90
2019-05-17T06:30:33.750Z,28.07
2019-05-17T06:31:39.044Z,19.27
2019-05-17T06:32:44.898Z,13.07
2019-05-17T06:33:52.360Z,14.87
2019-05-17T06:34:57.633Z,12.93
2019-05-17T06:36:03.036Z,31.77
2019-05-17T06:37:08.834Z,13.90
2019-05-17T06:38:14.107Z,15.93
2019-05-17T06:39:22.262Z,13.10
2019-05-17T06:40:27.035Z,13.67
2019-05-17T06:41:32.825Z,16.23
2019-05-17T06:42:41.384Z,13.67
2019-05-17T06:43:45.474Z,14.93
2019-05-17T06:44:52.375Z,14.10
2019-05-17T06:45:58.187Z,18.37
2019-05-17T06:47:03.472Z,12.70
2019-05-17T06:48:11.469Z,13.67
2019-05-17T06:49:17.213Z,13.40
2019-05-17T06:50:23.655Z,13.93
2019-05-17T06:51:28.882Z,17.97
2019-05-17T06:52:34.661Z,12.00
2019-05-17T06:53:39.966Z,13.07
2019-05-17T06:54:45.844Z,14.77
2019-05-17T06:55:53.442Z,12.93
2019-05-17T06:56:59.533Z,11.80
2019-05-17T06:58:04.931Z,13.97
2019-05-17T06:59:10.760Z,12.87
2019-05-17T07:00:20.666Z,13.37
2019-05-17T07:01:24.246Z,13.83
2019-05-17T07:02:30.868Z,11.77
2019-05-17T07:03:36.912Z,20.20
2019-05-17T07:04:42.202Z,13.07
2019-05-17T07:05:50.875Z,16.83
2019-05-17T07:07:13.764Z,14.00
2019-05-17T07:08:20.138Z,12.57
2019-05-17T07:09:27.113Z,18.00
2019-05-17T07:10:32.251Z,13.10
2019-05-17T07:11:39.835Z,15.53
2019-05-17T07:12:55.956Z,15.53
2019-05-17T07:13:52.698Z,22.97
2019-05-17T07:14:58.520Z,14.07
2019-05-17T07:16:05.561Z,13.13
2019-05-17T07:17:10.875Z,14.00
2019-05-17T07:18:16.776Z,12.07
2019-05-17T07:19:22.723Z,13.03
2019-05-17T07:20:29.940Z,12.20
2019-05-17T07:21:35.309Z,13.73
2019-05-17T07:22:41.196Z,12.93
2019-05-17T07:23:46.482Z,11.43
2019-05-17T07:24:52.342Z,11.77
2019-05-17T07:25:59.619Z,13.77
2019-05-17T07:27:05.077Z,16.57
2019-05-17T07:28:11.346Z,15.47
2019-05-17T07:29:19.276Z,13.50
2019-05-17T07:30:24.277Z,13.33
2019-05-17T07:31:30.026Z,13.53
2019-05-17T07:32:35.331Z,11.73
2019-05-17T07:33:41.196Z,12.50
2019-05-17T07:34:46.683Z,11.23
2019-05-17T07:35:52.389Z,14.67
2019-05-17T07:36:59.648Z,13.13
2019-05-17T07:38:05.054Z,13.73
2019-05-17T07:39:10.833Z,15.03
2019-05-17T07:40:17.091Z,14.60
2019-05-17T07:41:22.421Z,13.70
2019-05-17T07:42:29.851Z,12.80
2019-05-17T07:43:35.268Z,14.97
2019-05-17T07:44:43.850Z,13.63
2019-05-17T07:45:49.625Z,13.63
2019-05-17T07:46:55.583Z,11.47
2019-05-17T07:48:00.878Z,12.17
2019-05-17T07:49:06.734Z,11.97
2019-05-17T07:50:12.219Z,12.83
2019-05-17T07:51:19.477Z,12.67
2019-05-17T07:52:24.873Z,11.67
2019-05-17T07:53:30.904Z,11.13
2019-05-17T07:54:36.334Z,11.83
2019-05-17T07:55:42.223Z,12.03
2019-05-17T07:56:47.559Z,10.83
2019-05-17T07:57:53.400Z,10.50
2019-05-17T07:59:00.094Z,10.13
2019-05-17T08:00:06.490Z,8.90
2019-05-17T08:01:11.767Z,10.23
2019-05-17T08:02:19.723Z,9.07
2019-05-17T08:03:25.070Z,10.17
2019-05-17T08:04:31.162Z,9.20
2019-05-17T08:05:36.395Z,9.63
2019-05-17T08:06:42.209Z,11.20
2019-05-17T08:07:49.853Z,10.13
2019-05-17T08:08:54.854Z,10.60
2019-05-17T08:10:00.417Z,10.00
2019-05-17T08:11:06.237Z,10.67
2019-05-17T08:12:11.492Z,10.70
2019-05-17T08:13:27.366Z,10.73
2019-05-17T08:14:30.026Z,9.83
2019-05-17T08:15:32.453Z,10.53
2019-05-17T08:16:39.494Z,10.70
2019-05-17T08:17:45.108Z,14.27
2019-05-17T08:18:50.345Z,9.70
2019-05-17T08:19:56.137Z,10.80
2019-05-17T08:21:01.482Z,10.53
2019-05-17T08:22:09.633Z,12.30
2019-05-17T08:23:14.205Z,13.10
2019-05-17T08:24:19.842Z,10.93
2019-05-17T08:25:24.964Z,8.90
2019-05-17T08:26:30.721Z,12.20
2019-05-17T08:27:35.911Z,11.77
2019-05-17T08:28:41.653Z,14.20
2019-05-17T08:29:46.857Z,14.10
2019-05-17T08:30:52.676Z,13.23
2019-05-17T08:31:57.819Z,12.40
2019-05-17T08:33:04.235Z,12.67
2019-05-17T08:34:10.340Z,14.43
2019-05-17T08:35:16.306Z,11.73
2019-05-17T08:36:21.403Z,12.70
2019-05-17T08:37:29.924Z,12.80
2019-05-17T08:38:35.064Z,13.50
2019-05-17T08:39:40.901Z,12.60
2019-05-17T08:40:46.066Z,13.30
2019-05-17T08:41:51.861Z,14.40
2019-05-17T08:42:57.151Z,14.73
2019-05-17T08:44:02.962Z,13.57
2019-05-17T08:45:09.689Z,15.47
2019-05-17T08:46:15.697Z,13.80
2019-05-17T08:47:21.083Z,15.30
2019-05-17T08:48:29.344Z,15.70
2019-05-17T08:49:33.934Z,13.70
2019-05-17T08:50:40.277Z,14.73
2019-05-17T08:51:45.768Z,13.67
2019-05-17T08:52:51.544Z,13.97
2019-05-17T08:53:56.829Z,16.77
2019-05-17T08:55:02.651Z,13.20
2019-05-17T08:56:10.032Z,15.00
2019-05-17T08:57:15.303Z,16.73
2019-05-17T08:58:21.554Z,17.97
2019-05-17T08:59:29.636Z,14.37
2019-05-17T09:00:35.146Z,16.77
2019-05-17T09:01:41.705Z,14.60
2019-05-17T09:02:49.831Z,14.90
2019-05-17T09:03:54.799Z,14.30
2019-05-17T09:05:00.639Z,16.10
2019-05-17T09:06:06.550Z,14.93
2019-05-17T09:07:11.856Z,18.00
2019-05-17T09:08:17.678Z,16.87
2019-05-17T09:09:23.009Z,16.03
2019-05-17T09:10:29.942Z,15.33
2019-05-17T09:11:35.478Z,16.90
2019-05-17T09:12:41.294Z,16.23
2019-05-17T09:13:57.258Z,16.73
2019-05-17T09:14:54.040Z,14.83
2019-05-17T09:16:00.356Z,15.90
2019-05-17T09:17:06.374Z,18.47
2019-05-17T09:18:11.667Z,16.37
2019-05-17T09:19:19.332Z,14.40
2019-05-17T09:20:24.316Z,16.57
2019-05-17T09:21:31.498Z,15.27
2019-05-17T09:22:39.576Z,15.67
2019-05-17T09:23:45.704Z,15.63
2019-05-17T09:24:50.988Z,17.70
2019-05-17T09:25:59.363Z,17.03
2019-05-17T09:27:03.775Z,16.87
2019-05-17T09:28:10.392Z,21.17
2019-05-17T09:29:15.771Z,18.03
2019-05-17T09:30:25.561Z,17.77
2019-05-17T09:31:32.344Z,17.73
2019-05-17T09:32:40.383Z,18.03
2019-05-17T09:33:45.159Z,19.27
2019-05-17T09:34:51.031Z,17.00
2019-05-17T09:35:56.254Z,20.37
2019-05-17T09:37:02.103Z,19.60
2019-05-17T09:38:09.840Z,16.27
2019-05-17T09:39:14.933Z,16.33
2019-05-17T09:40:20.267Z,15.77
2019-05-17T09:41:26.208Z,15.40
2019-05-17T09:42:31.561Z,18.00
2019-05-17T09:43:40.070Z,19.73
2019-05-17T09:44:44.395Z,16.70
2019-05-17T09:45:51.008Z,18.77
2019-05-17T09:46:56.428Z,17.40
2019-05-17T09:48:02.309Z,16.67
2019-05-17T09:49:10.190Z,17.33
2019-05-17T09:50:15.148Z,16.00
2019-05-17T09:51:20.579Z,17.93
2019-05-17T09:52:26.425Z,19.33
2019-05-17T09:53:31.695Z,18.77
2019-05-17T09:54:44.869Z,16.50
2019-05-17T09:55:45.194Z,17.60
2019-05-17T09:56:50.986Z,17.20
2019-05-17T09:57:56.199Z,18.13
2019-05-17T09:59:02.542Z,18.67
2019-05-17T10:00:09.923Z,16.30
2019-05-17T10:01:16.069Z,16.97
2019-05-17T10:02:21.329Z,20.80
2019-05-17T10:03:27.118Z,15.63
2019-05-17T10:04:35.459Z,19.47
2019-05-17T10:05:41.296Z,18.57
2019-05-17T10:06:46.618Z,21.97
2019-05-17T10:07:52.466Z,20.17
2019-05-17T10:09:00.047Z,21.07
2019-05-17T10:10:05.601Z,19.07
2019-05-17T10:11:12.187Z,17.17
2019-05-17T10:12:20.188Z,19.77
2019-05-17T10:13:25.007Z,19.37
2019-05-17T10:14:31.355Z,20.80
2019-05-17T10:15:36.872Z,21.73
2019-05-17T10:16:42.692Z,20.37
2019-05-17T10:17:47.924Z,17.63
2019-05-17T10:18:53.623Z,19.77
2019-05-17T10:19:59.911Z,22.43
2019-05-17T10:21:06.935Z,20.33
2019-05-17T10:22:12.166Z,21.33
2019-05-17T10:23:19.708Z,18.50
2019-05-17T10:24:36.037Z,18.13
2019-05-17T10:25:32.261Z,21.90
2019-05-17T10:26:37.475Z,18.77
2019-05-17T10:27:43.311Z,17.83
2019-05-17T10:28:48.615Z,19.07
2019-05-17T10:29:54.435Z,22.90
2019-05-17T10:31:02.323Z,18.43
2019-05-17T10:32:07.294Z,18.60
2019-05-17T10:33:12.630Z,18.37
2019-05-17T10:34:20.297Z,20.13
2019-05-17T10:35:25.324Z,16.87
2019-05-17T10:36:31.177Z,16.43
2019-05-17T10:37:36.364Z,15.90
2019-05-17T10:38:42.227Z,16.23
2019-05-17T10:39:50.078Z,15.83
2019-05-17T10:40:55.956Z,17.20
2019-05-17T10:42:01.192Z,16.33
2019-05-17T10:43:07.012Z,15.77
2019-05-17T10:44:12.315Z,15.43
2019-05-17T10:45:19.864Z,19.10
2019-05-17T10:46:26.276Z,16.50
2019-05-17T10:47:32.071Z,14.70
2019-05-17T10:48:37.377Z,14.47
2019-05-17T10:49:43.291Z,15.00
2019-05-17T10:50:49.636Z,16.87
2019-05-17T10:51:55.865Z,14.73
2019-05-17T10:53:01.068Z,19.57
2019-05-17T10:54:09.439Z,16.70
2019-05-17T10:55:13.859Z,21.17
2019-05-17T10:56:23.218Z,15.40
2019-05-17T10:57:26.614Z,17.90
2019-05-17T10:58:32.577Z,19.67
2019-05-17T10:59:37.758Z,18.27
2019-05-17T11:00:43.897Z,18.73
2019-05-17T11:01:50.144Z,17.90
2019-05-17T11:02:57.274Z,16.17
2019-05-17T11:04:02.495Z,18.37
2019-05-17T11:05:10.483Z,18.37
2019-05-17T11:06:15.251Z,17.17
2019-05-17T11:07:21.030Z,16.90
2019-05-17T11:08:26.249Z,19.57
2019-05-17T11:09:32.147Z,21.10
2019-05-17T11:10:40.424Z,22.00
2019-05-17T11:11:46.392Z,21.40
2019-05-17T11:12:51.569Z,17.60
2019-05-17T11:13:58.383Z,17.03
2019-05-17T11:15:11.129Z,19.37
2019-05-17T11:16:11.334Z,18.40
2019-05-17T11:17:16.634Z,19.27
2019-05-17T11:18:22.409Z,21.40
2019-05-17T11:19:27.715Z,20.30
2019-05-17T11:20:33.556Z,18.40
2019-05-17T11:21:38.836Z,17.50
2019-05-17T11:22:44.791Z,16.97
2019-05-17T11:23:50.063Z,17.73
2019-05-17T11:24:55.890Z,15.50
2019-05-17T11:26:01.064Z,20.03
2019-05-17T11:27:08.434Z,17.93
2019-05-17T11:28:13.710Z,16.23
2019-05-17T11:29:19.506Z,17.00
2019-05-17T11:30:24.700Z,19.50
2019-05-17T11:31:30.578Z,17.97
2019-05-17T11:32:35.759Z,20.03
2019-05-17T11:33:41.599Z,20.80
2019-05-17T11:34:47.016Z,21.20
2019-05-17T11:35:53.231Z,20.17
2019-05-17T11:36:58.508Z,22.00
2019-05-17T11:38:13.545Z,20.27
2019-05-17T11:39:24.465Z,20.70
2019-05-17T11:40:35.124Z,19.93
2019-05-17T11:41:45.062Z,23.13
2019-05-17T11:42:53.591Z,20.27
2019-05-17T11:43:58.881Z,16.87
2019-05-17T11:45:04.868Z,18.13
2019-05-17T11:46:10.153Z,18.63
2019-05-17T11:47:18.687Z,19.43
2019-05-17T11:48:24.011Z,18.97
2019-05-17T11:49:29.749Z,20.40
2019-05-17T11:50:35.008Z,19.20
2019-05-17T11:51:40.845Z,19.73
2019-05-17T11:52:46.307Z,18.63
2019-05-17T11:53:52.009Z,19.37
2019-05-17T11:54:57.232Z,16.73
2019-05-17T11:56:02.994Z,18.70
2019-05-17T11:57:08.305Z,17.03
2019-05-17T11:58:14.044Z,18.83
2019-05-17T11:59:19.297Z,19.93
2019-05-17T12:00:25.550Z,17.90
2019-05-17T12:01:30.828Z,17.70
2019-05-17T12:02:36.662Z,19.93
2019-05-17T12:03:41.908Z,18.97
2019-05-17T12:04:47.699Z,18.03
2019-05-17T12:05:52.912Z,22.30
2019-05-17T12:06:58.745Z,17.10
2019-05-17T12:08:03.973Z,18.03
2019-05-17T12:09:09.808Z,16.90
2019-05-17T12:10:15.150Z,16.67
2019-05-17T12:11:21.145Z,17.83
2019-05-17T12:12:26.480Z,17.97
2019-05-17T12:13:32.386Z,17.77
2019-05-17T12:14:37.651Z,17.90
2019-05-17T12:15:45.359Z,16.70
2019-05-17T12:16:50.399Z,18.17
2019-05-17T12:17:56.158Z,17.60
2019-05-17T12:19:01.328Z,16.23
2019-05-17T12:20:08.464Z,15.87
2019-05-17T12:21:13.694Z,19.70
2019-05-17T12:22:19.533Z,18.93
2019-05-17T12:23:24.839Z,16.93
2019-05-17T12:24:30.530Z,17.57
2019-05-17T12:25:35.798Z,17.03
2019-05-17T12:26:41.622Z,15.67
2019-05-17T12:27:47.367Z,16.77
2019-05-17T12:28:53.093Z,20.03
2019-05-17T12:29:58.205Z,17.03
2019-05-17T12:31:03.926Z,16.20
2019-05-17T12:32:09.167Z,15.10
2019-05-17T12:33:14.912Z,17.70
2019-05-17T12:34:20.103Z,16.27
2019-05-17T12:35:26.963Z,15.33
2019-05-17T12:36:32.246Z,16.47
2019-05-17T12:37:38.022Z,15.73
2019-05-17T12:38:43.212Z,14.93
2019-05-17T12:39:49.116Z,15.40
2019-05-17T12:40:54.415Z,14.40
2019-05-17T12:42:00.412Z,14.13
2019-05-17T12:43:05.596Z,13.83
2019-05-17T12:44:11.492Z,12.87
2019-05-17T12:45:16.871Z,15.20
2019-05-17T12:46:22.643Z,12.37
2019-05-17T12:47:28.012Z,13.93
2019-05-17T12:48:33.789Z,12.47
2019-05-17T12:49:38.926Z,13.30
2019-05-17T12:50:44.858Z,12.33
2019-05-17T12:51:50.150Z,12.73
2019-05-17T12:52:55.994Z,13.33
2019-05-17T12:54:01.240Z,15.00
2019-05-17T12:55:09.305Z,17.53
2019-05-17T12:56:17.597Z,17.57
2019-05-17T12:57:23.414Z,16.30
2019-05-17T12:58:28.743Z,17.83
2019-05-17T12:59:34.561Z,15.70
2019-05-17T13:00:39.778Z,16.87
2019-05-17T13:01:45.644Z,17.30
2019-05-17T13:02:51.034Z,16.50
2019-05-17T13:03:57.054Z,15.80
2019-05-17T13:05:02.369Z,18.40
2019-05-17T13:06:08.234Z,16.00
2019-05-17T13:07:13.542Z,16.97
2019-05-17T13:08:19.385Z,16.07
2019-05-17T13:09:24.651Z,15.17
2019-05-17T13:10:30.464Z,14.83
2019-05-17T13:11:35.635Z,16.60
2019-05-17T13:12:41.397Z,15.50
2019-05-17T13:13:46.559Z,15.53
2019-05-17T13:14:52.375Z,16.90
2019-05-17T13:15:57.654Z,16.27
2019-05-17T13:17:03.419Z,15.00
2019-05-17T13:18:08.657Z,18.73
2019-05-17T13:19:14.495Z,14.80
2019-05-17T13:20:21.066Z,13.40
2019-05-17T13:21:26.898Z,15.93
2019-05-17T13:22:32.114Z,13.60
2019-05-17T13:23:38.006Z,15.03
2019-05-17T13:24:43.178Z,14.07
2019-05-17T13:25:49.013Z,14.37
2019-05-17T13:26:54.271Z,14.83
2019-05-17T13:28:00.090Z,13.83
2019-05-17T13:29:05.269Z,14.03
2019-05-17T13:30:11.750Z,15.30
2019-05-17T13:31:17.002Z,13.70
2019-05-17T13:32:22.872Z,14.83
2019-05-17T13:33:29.286Z,12.50
2019-05-17T13:34:35.486Z,13.33
2019-05-17T13:35:40.826Z,13.13
2019-05-17T13:36:46.672Z,14.17
2019-05-17T13:37:51.981Z,12.57
2019-05-17T13:38:57.791Z,13.13
2019-05-17T13:40:03.087Z,13.50
2019-05-17T13:41:09.049Z,12.93
2019-05-17T13:42:14.792Z,12.50
2019-05-17T13:43:20.706Z,13.43
2019-05-17T13:44:26.236Z,12.90
2019-05-17T13:45:32.206Z,14.70
2019-05-17T13:46:37.485Z,14.97
2019-05-17T13:47:43.404Z,13.33
2019-05-17T13:48:48.696Z,15.63
2019-05-17T13:49:54.650Z,12.13
2019-05-17T13:50:59.995Z,11.57
2019-05-17T13:52:06.052Z,10.83
2019-05-17T13:53:11.340Z,12.77
2019-05-17T13:54:17.211Z,12.60
2019-05-17T13:55:22.482Z,11.13
2019-05-17T13:56:28.395Z,12.47
2019-05-17T13:57:33.587Z,13.07
2019-05-17T13:58:39.422Z,8.90
2019-05-17T13:59:44.710Z,8.47
2019-05-17T14:00:50.644Z,12.13
2019-05-17T14:01:55.927Z,9.63
2019-05-17T14:03:01.831Z,7.37
2019-05-17T14:04:07.194Z,8.80
2019-05-17T14:05:13.588Z,9.03
2019-05-17T14:06:18.834Z,9.00
2019-05-17T14:07:24.618Z,9.77
2019-05-17T14:08:29.866Z,11.30
2019-05-17T14:09:35.693Z,9.20
2019-05-17T14:10:40.909Z,10.73
2019-05-17T14:11:46.767Z,11.17